TimeGMT,TemperatureF,Dew PointF,Humidity,Sea Level PressureIn,VisibilityMPH,Wind Direction,Wind SpeedMPH,Gust SpeedMPH,PrecipitationIn,Events,Conditions,WindDirDegrees,DateUTC
12:20 AM,37.4,35.6,93,29.92,5.0,SSE,6.9,-,N/A,Rain,Light Rain,150,2012-12-03 00:20:00
12:50 AM,37.4,35.6,93,29.92,3.7,SSE,5.8,-,N/A,Rain,Light Rain,150,2012-12-03 00:50:00
1:20 AM,37.4,37.4,100,29.89,3.1,SE,5.8,-,N/A,Rain,Light Rain,140,2012-12-03 01:20:00
1:50 AM,39.2,37.4,93,29.86,3.7,SE,6.9,-,N/A,Rain,Light Rain,140,2012-12-03 01:50:00
2:20 AM,39.2,37.4,93,29.86,3.7,SSE,5.8,-,N/A,Rain,Light Rain,150,2012-12-03 02:20:00
2:50 AM,39,39,98,29.83,3,SSE,4.6,,,Rain,Light Rain,150,2012-12-03 02:50:00
2:50 AM,39.2,37.4,93,29.83,-9999.0,SSE,4.6,-,N/A,Rain,Rain,160,2012-12-03 02:50:00
3:20 AM,39.2,39.2,100,29.80,2.5,South,3.5,-,N/A,Rain,Light Rain,170,2012-12-03 03:20:00
3:50 AM,42.8,41.0,93,29.80,3.1,Variable,3.5,-,N/A,Rain,Light Rain,0,2012-12-03 03:50:00
4:20 AM,44.6,42.8,93,29.77,-9999.0,SW,4.6,-,N/A,Rain,Light Rain,220,2012-12-03 04:20:00
4:50 AM,44.6,44.6,100,29.74,3.7,SSW,6.9,18.4,N/A,,Mostly Cloudy,210,2012-12-03 04:50:00
5:20 AM,46.4,44.6,93,29.74,3.1,SW,12.7,-,N/A,,Mostly Cloudy,230,2012-12-03 05:20:00
5:50 AM,46,46,97,29.74,12,SW,9.2,,,Rain,Drizzle,230,2012-12-03 05:50:00
5:50 AM,46.4,46.4,100,29.74,6.2,SW,9.2,-,N/A,,Mostly Cloudy,230,2012-12-03 05:50:00
6:20 AM,48.2,46.4,93,29.71,6.2,WSW,11.5,-,N/A,,Mostly Cloudy,250,2012-12-03 06:20:00
6:50 AM,50.0,48.2,94,29.71,6.2,West,13.8,-,N/A,,Mostly Cloudy,260,2012-12-03 06:50:00
7:20 AM,50.0,46.4,87,29.71,6.2,West,11.5,-,N/A,,Mostly Cloudy,260,2012-12-03 07:20:00
7:50 AM,50.0,48.2,94,29.74,6.2,West,12.7,-,N/A,,Mostly Cloudy,260,2012-12-03 07:50:00
8:20 AM,50.0,48.2,94,29.71,6.2,WSW,10.4,-,N/A,,Mostly Cloudy,250,2012-12-03 08:20:00
8:50 AM,51,48,87,29.72,16,WSW,11.5,,,,Mostly Cloudy,250,2012-12-03 08:50:00
8:50 AM,50.0,48.2,94,29.71,6.2,WSW,12.7,-,N/A,,Mostly Cloudy,250,2012-12-03 08:50:00
9:20 AM,51.8,48.2,88,29.71,6.2,WSW,11.5,-,N/A,,Mostly Cloudy,250,2012-12-03 09:20:00
9:50 AM,51.8,48.2,88,29.71,2.2,West,16.1,-,N/A,Rain,Rain,260,2012-12-03 09:50:00
10:20 AM,50.0,48.2,94,29.71,6.2,West,11.5,-,N/A,,Scattered Clouds,270,2012-12-03 10:20:00
10:50 AM,50.0,46.4,87,29.71,6.2,West,12.7,-,N/A,,Partly Cloudy,280,2012-12-03 10:50:00
11:20 AM,50.0,46.4,87,29.71,6.2,West,11.5,-,N/A,,Mostly Cloudy,270,2012-12-03 11:20:00
11:50 AM,50,44,74,29.74,22,West,15.0,,,Rain,Rain,280,2012-12-03 11:50:00
11:50 AM,48.2,44.6,87,29.74,6.2,West,16.1,-,N/A,,Mostly Cloudy,280,2012-12-03 11:50:00
12:20 PM,50.0,44.6,82,29.74,6.2,WNW,16.1,-,N/A,,Partly Cloudy,290,2012-12-03 12:20:00
12:50 PM,48.2,41.0,76,29.74,6.2,WNW,12.7,-,N/A,,Partly Cloudy,290,2012-12-03 12:50:00
1:20 PM,48.2,41.0,76,29.74,6.2,West,13.8,-,N/A,,Partly Cloudy,280,2012-12-03 13:20:00
1:50 PM,46.4,39.2,76,29.74,6.2,WNW,15.0,-,N/A,,Partly Cloudy,290,2012-12-03 13:50:00
2:20 PM,46.4,39.2,76,29.74,6.2,West,15.0,-,N/A,,Partly Cloudy,280,2012-12-03 14:20:00
2:50 PM,46,37,62,29.75,19,West,13.8,,,,Scattered Clouds,270,2012-12-03 14:50:00
2:50 PM,46.4,37.4,71,29.74,6.2,West,13.8,-,N/A,,Partly Cloudy,270,2012-12-03 14:50:00
3:20 PM,44.6,37.4,76,29.74,6.2,West,16.1,-,N/A,,Partly Cloudy,270,2012-12-03 15:20:00
3:50 PM,44.6,37.4,76,29.74,-9999.0,WSW,13.8,-,N/A,,Clear,250,2012-12-03 15:50:00
4:20 PM,44.6,37.4,76,29.74,6.2,WSW,11.5,-,N/A,,Partly Cloudy,250,2012-12-03 16:20:00
4:50 PM,42.8,37.4,81,29.74,-9999.0,West,11.5,-,N/A,,Clear,260,2012-12-03 16:50:00
5:20 PM,42.8,37.4,81,29.71,-9999.0,WSW,11.5,-,N/A,,Clear,250,2012-12-03 17:20:00
5:50 PM,43,37,73,29.73,16,WSW,11.5,,,,Mostly Cloudy,240,2012-12-03 17:50:00
5:50 PM,42.8,37.4,81,29.71,-9999.0,WSW,12.7,-,N/A,,Clear,240,2012-12-03 17:50:00
6:20 PM,42.8,37.4,81,29.71,-9999.0,West,11.5,-,N/A,,Clear,260,2012-12-03 18:20:00
6:50 PM,42.8,37.4,81,29.71,-9999.0,West,11.5,-,N/A,,Clear,280,2012-12-03 18:50:00
7:20 PM,41.0,37.4,87,29.71,-9999.0,West,11.5,-,N/A,,Clear,280,2012-12-03 19:20:00
7:50 PM,42.8,37.4,81,29.68,-9999.0,West,13.8,-,N/A,,Clear,270,2012-12-03 19:50:00
8:20 PM,42.8,37.4,81,29.68,-9999.0,West,10.4,-,N/A,,Clear,270,2012-12-03 20:20:00
8:50 PM,41,36,75,29.68,14,West,11.5,,,,Partly Cloudy,260,2012-12-03 20:50:00
8:50 PM,42.8,35.6,76,29.68,-9999.0,West,12.7,-,N/A,,Clear,270,2012-12-03 20:50:00
9:20 PM,42.8,35.6,76,29.65,-9999.0,West,16.1,-,N/A,,Clear,260,2012-12-03 21:20:00
9:50 PM,42.8,35.6,76,29.65,-9999.0,West,15.0,-,N/A,,Clear,270,2012-12-03 21:50:00
10:20 PM,39.2,33.8,81,29.65,-9999.0,West,12.7,-,N/A,,Clear,280,2012-12-03 22:20:00
10:50 PM,41.0,33.8,76,29.65,-9999.0,West,8.1,-,N/A,,Clear,280,2012-12-03 22:50:00
11:20 PM,39.2,33.8,81,29.65,-9999.0,West,9.2,-,N/A,,Clear,270,2012-12-03 23:20:00
11:50 PM,37,34,84,29.66,16,West,8.1,,,,Scattered Clouds,260,2012-12-03 23:50:00
11:50 PM,35.6,33.8,93,29.65,-9999.0,West,8.1,-,N/A,,Clear,270,2012-12-03 23:50:00